Time;durP1;ratioP1;P1;durP2;ratioP2;P2;SDS_P1;SDS_P2;PMS_P1;PMS_P2;Temp;Humidity;BMP_temperature;BMP_pressure;BME280_temperature;BME280_humidity;BME280_pressure;Samples;Min_cycle;Max_cycle;Signal;HPM_P1;HPM_P2
2021/11/24 00:00:06;;;;;;;30.73;13.27;;;;;;;5.83;100.00;95658.22;5085597;28;20119;-72
2021/11/24 00:02:33;;;;;;;36.75;15.75;;;;;;;5.75;100.00;95656.56;5084339;28;20083;-72
2021/11/24 00:05:00;;;;;;;35.90;15.00;;;;;;;5.72;100.00;95661.28;5089362;28;20040;-71
2021/11/24 00:07:28;;;;;;;31.25;12.80;;;;;;;5.49;100.00;95641.53;5093752;28;20476;-71
2021/11/24 00:09:54;;;;;;;24.30;10.80;;;;;;;5.46;100.00;95657.38;5087863;28;20035;-72
2021/11/24 00:12:21;;;;;;;27.63;12.27;;;;;;;5.41;100.00;95664.06;5068755;28;20417;-71
2021/11/24 00:14:48;;;;;;;24.75;12.07;;;;;;;5.23;100.00;95656.66;5089520;28;20060;-71
2021/11/24 00:17:16;;;;;;;26.75;12.13;;;;;;;5.22;100.00;95665.38;5069654;28;20135;-72
2021/11/24 00:19:44;;;;;;;30.45;12.05;;;;;;;5.00;100.00;95647.19;5087912;28;20078;-71
2021/11/24 00:22:10;;;;;;;31.60;13.73;;;;;;;5.09;100.00;95666.78;5091766;28;20051;-72
2021/11/24 00:24:37;;;;;;;22.05;11.57;;;;;;;5.03;100.00;95656.38;5094893;28;20408;-71
2021/11/24 00:27:04;;;;;;;23.88;11.20;;;;;;;5.08;100.00;95670.34;5086231;28;20105;-72
2021/11/24 00:29:31;;;;;;;23.33;11.75;;;;;;;5.08;100.00;95680.69;5072457;28;20040;-71
2021/11/24 00:31:58;;;;;;;26.75;11.98;;;;;;;4.96;100.00;95682.06;5090022;28;20039;-71
2021/11/24 00:34:25;;;;;;;24.40;10.85;;;;;;;4.93;100.00;95674.66;5090641;28;20057;-72
2021/11/24 00:36:52;;;;;;;30.58;12.38;;;;;;;4.96;100.00;95674.34;5088615;28;20093;-71
2021/11/24 00:39:18;;;;;;;34.28;11.68;;;;;;;4.90;100.00;95664.72;5084678;28;20036;-72
2021/11/24 00:41:45;;;;;;;23.13;11.55;;;;;;;4.96;100.00;95682.06;5084644;28;20044;-71
2021/11/24 00:44:12;;;;;;;26.48;10.77;;;;;;;4.90;100.00;95673.25;5089632;28;20048;-70
2021/11/24 00:46:39;;;;;;;22.98;11.45;;;;;;;4.92;100.00;95675.66;5091360;28;20051;-71
2021/11/24 00:49:07;;;;;;;22.20;10.15;;;;;;;4.76;100.00;95664.47;5090969;28;20527;-72
2021/11/24 00:51:34;;;;;;;28.90;12.85;;;;;;;4.90;100.00;95677.63;5088152;28;20051;-72
2021/11/24 00:54:01;;;;;;;21.92;10.95;;;;;;;4.85;100.00;95675.53;5090814;28;20043;-72
2021/11/24 00:56:28;;;;;;;24.38;11.43;;;;;;;4.83;100.00;95668.97;5089663;28;20062;-72
2021/11/24 00:58:55;;;;;;;24.92;11.77;;;;;;;4.78;100.00;95675.44;5073035;28;20513;-72
2021/11/24 01:01:21;;;;;;;24.75;12.30;;;;;;;4.75;100.00;95665.47;5089382;28;20055;-72
2021/11/24 01:03:49;;;;;;;21.63;9.68;;;;;;;4.75;100.00;95665.47;5094356;28;20482;-71
2021/11/24 01:06:16;;;;;;;21.65;9.80;;;;;;;4.83;100.00;95661.22;5088306;28;20042;-71
2021/11/24 01:08:43;;;;;;;27.00;11.88;;;;;;;4.88;100.00;95664.06;5091305;28;20504;-72
2021/11/24 01:11:10;;;;;;;26.45;12.07;;;;;;;4.87;100.00;95667.63;5086105;28;20043;-71
2021/11/24 01:13:37;;;;;;;21.00;9.43;;;;;;;4.84;100.00;95663.59;5089556;28;20048;-71
2021/11/24 01:16:04;;;;;;;30.20;12.20;;;;;;;4.89;100.00;95665.69;5084927;28;20692;-71
2021/11/24 01:18:31;;;;;;;25.83;11.32;;;;;;;4.81;100.00;95663.16;5084718;28;20047;-71
2021/11/24 01:20:59;;;;;;;25.45;12.07;;;;;;;4.85;100.00;95661.84;5088192;28;20114;-71
2021/11/24 01:23:26;;;;;;;23.73;11.15;;;;;;;4.86;100.00;95660.84;5094694;28;20043;-71
2021/11/24 01:25:53;;;;;;;20.25;10.52;;;;;;;4.73;100.00;95651.13;5090395;28;20122;-71
2021/11/24 01:28:20;;;;;;;21.23;9.98;;;;;;;4.79;100.00;95661.56;5089765;28;20040;-71
2021/11/24 01:30:48;;;;;;;23.40;10.05;;;;;;;4.88;100.00;95664.06;5090818;28;20067;-71
2021/11/24 01:33:15;;;;;;;24.75;12.48;;;;;;;4.65;100.00;95644.25;5089088;28;21078;-72
2021/11/24 01:35:42;;;;;;;23.80;10.88;;;;;;;4.77;100.00;95657.53;5085640;28;21475;-71
2021/11/24 01:38:09;;;;;;;27.73;9.82;;;;;;;4.70;100.00;95641.97;5086373;28;20051;-71
2021/11/24 01:40:36;;;;;;;24.65;10.75;;;;;;;4.70;100.00;95641.13;5088543;28;20063;-71
2021/11/24 01:43:04;;;;;;;25.20;11.18;;;;;;;4.85;100.00;95654.91;5088343;28;20589;-71
2021/11/24 01:45:31;;;;;;;23.98;10.32;;;;;;;4.79;100.00;95648.66;5087456;28;20040;-72
2021/11/24 01:47:58;;;;;;;28.48;11.57;;;;;;;4.93;100.00;95656.59;5093252;28;20055;-70
2021/11/24 01:50:25;;;;;;;32.25;11.95;;;;;;;4.78;100.00;95634.13;5097764;28;20036;-71
2021/11/24 01:52:52;;;;;;;21.88;10.07;;;;;;;4.89;100.00;95650.19;5091176;28;20040;-71
2021/11/24 01:55:20;;;;;;;24.48;9.40;;;;;;;4.94;100.00;95647.88;5067133;28;20105;-71
2021/11/24 01:57:51;;;;;;;23.25;9.40;;;;;;;5.03;100.00;95652.00;5090292;28;20047;-71
2021/11/24 02:00:24;;;;;;;23.42;10.35;;;;;;;4.96;100.00;95648.50;5085495;28;20040;-71
2021/11/24 02:02:52;;;;;;;22.77;9.13;;;;;;;4.97;100.00;95647.53;5090062;28;20097;-71
2021/11/24 02:05:19;;;;;;;20.23;9.82;;;;;;;4.90;100.00;95626.00;5087778;28;20047;-71
2021/11/24 02:07:46;;;;;;;23.13;11.35;;;;;;;5.00;100.00;95644.59;5089178;28;20044;-71
2021/11/24 02:10:13;;;;;;;23.40;9.40;;;;;;;4.97;100.00;95637.22;5088392;28;20056;-71
2021/11/24 02:12:41;;;;;;;21.88;9.88;;;;;;;5.12;100.00;95645.78;5090376;28;20044;-71
2021/11/24 02:15:09;;;;;;;24.55;10.20;;;;;;;5.11;100.00;95648.53;5095203;28;20502;-71
2021/11/24 02:17:38;;;;;;;23.85;11.82;;;;;;;5.20;100.00;95641.50;5083767;28;20043;-71
2021/11/24 02:20:10;;;;;;;24.50;11.45;;;;;;;5.22;100.00;95624.03;5088276;28;20040;-71
2021/11/24 02:22:37;;;;;;;22.45;10.38;;;;;;;5.33;100.00;95641.69;5092408;28;20058;-71
2021/11/24 02:25:04;;;;;;;23.80;10.57;;;;;;;5.31;100.00;95638.47;5089078;28;20040;-71
2021/11/24 02:27:31;;;;;;;20.45;10.18;;;;;;;5.23;100.00;95638.56;5091441;28;20039;-71
2021/11/24 02:29:58;;;;;;;27.92;10.43;;;;;;;5.33;100.00;95641.69;5079997;28;20055;-71
2021/11/24 02:32:24;;;;;;;24.48;10.13;;;;;;;5.38;100.00;95641.94;5092288;28;20429;-71
2021/11/24 02:34:51;;;;;;;23.13;10.63;;;;;;;5.38;100.00;95639.38;5081369;28;21139;-72
2021/11/24 02:37:18;;;;;;;21.58;9.32;;;;;;;5.36;100.00;95644.72;5090869;28;20058;-71
2021/11/24 02:39:48;;;;;;;23.42;10.50;;;;;;;5.29;100.00;95640.44;5096568;28;20055;-72
2021/11/24 02:42:15;;;;;;;21.92;10.55;;;;;;;5.25;100.00;95640.00;5090550;28;20044;-71
2021/11/24 02:44:42;;;;;;;21.75;9.55;;;;;;;5.29;100.00;95645.59;5094704;28;20751;-71
2021/11/24 02:47:19;;;;;;;20.95;9.45;;;;;;;5.37;100.00;95648.13;5090726;28;20461;-71
2021/11/24 02:49:48;;;;;;;20.77;9.25;;;;;;;5.26;100.00;95645.97;5096278;28;20480;-71
2021/11/24 02:52:17;;;;;;;20.73;8.57;;;;;;;5.30;100.00;95642.06;5097169;28;20047;-71
2021/11/24 02:54:55;;;;;;;22.52;10.07;;;;;;;5.35;100.00;95644.91;5094692;28;20048;-71
2021/11/24 02:57:41;;;;;;;27.83;10.18;;;;;;;5.31;100.00;95639.31;5094501;28;20532;-71
2021/11/24 03:00:15;;;;;;;23.80;10.75;;;;;;;5.31;100.00;95633.31;5091793;28;20055;-71
2021/11/24 03:02:43;;;;;;;26.75;10.63;;;;;;;5.33;100.00;95636.50;5096171;28;20040;-72
2021/11/24 03:05:11;;;;;;;23.25;11.13;;;;;;;5.39;100.00;95633.22;5073710;28;20054;-72
2021/11/24 03:07:39;;;;;;;26.25;10.77;;;;;;;5.37;100.00;95648.13;5094340;28;20047;-72
2021/11/24 03:10:07;;;;;;;25.17;11.50;;;;;;;5.42;100.00;95644.97;5089610;28;20040;-72
2021/11/24 03:12:35;;;;;;;23.67;10.68;;;;;;;5.37;100.00;95648.13;5094450;28;20098;-72
2021/11/24 03:15:05;;;;;;;23.42;11.18;;;;;;;5.20;100.00;95641.50;5095521;28;20513;-72
2021/11/24 03:17:32;;;;;;;21.70;10.75;;;;;;;5.17;100.00;95638.31;5093578;28;20078;-72
2021/11/24 03:19:59;;;;;;;24.67;10.98;;;;;;;5.32;100.00;95655.59;5089821;28;20040;-72
2021/11/24 03:22:26;;;;;;;28.02;14.52;;;;;;;5.06;100.00;95635.34;5097201;28;20511;-72
2021/11/24 03:24:56;;;;;;;24.58;11.68;;;;;;;5.07;100.00;95657.63;5094976;28;20117;-72
2021/11/24 03:27:30;;;;;;;24.85;13.20;;;;;;;4.92;100.00;95655.00;5090933;28;20416;-71
2021/11/24 03:29:59;;;;;;;23.25;10.68;;;;;;;4.76;100.00;95651.59;5094117;28;20040;-71
2021/11/24 03:32:27;;;;;;;28.67;11.68;;;;;;;4.64;100.00;95658.13;5092285;28;20047;-72
2021/11/24 03:34:54;;;;;;;22.33;11.48;;;;;;;4.67;100.00;95657.78;5097800;28;20047;-72
2021/11/24 03:37:21;;;;;;;28.60;12.05;;;;;;;4.74;100.00;95653.53;5089603;28;20058;-72
2021/11/24 03:39:49;;;;;;;29.33;13.07;;;;;;;4.70;100.00;95660.03;5085712;28;20055;-71
2021/11/24 03:42:18;;;;;;;20.50;9.82;;;;;;;4.63;100.00;95664.28;5078201;28;20054;-72
2021/11/24 03:44:45;;;;;;;29.58;10.93;;;;;;;4.66;100.00;95655.38;5088182;28;20039;-72
2021/11/24 03:47:12;;;;;;;30.80;13.77;;;;;;;4.54;100.00;95647.25;5092039;28;20051;-72
2021/11/24 03:49:39;;;;;;;26.95;12.48;;;;;;;4.73;100.00;95662.25;5094825;28;20046;-72
2021/11/24 03:52:06;;;;;;;26.02;12.50;;;;;;;4.69;100.00;95666.16;5090767;28;20044;-71
2021/11/24 03:54:34;;;;;;;26.70;12.13;;;;;;;4.65;100.00;95674.44;5097313;28;20534;-71
2021/11/24 03:57:01;;;;;;;24.33;11.95;;;;;;;4.50;100.00;95658.88;5086816;28;20051;-71
2021/11/24 03:59:28;;;;;;;25.25;12.02;;;;;;;4.50;100.00;95671.78;5076369;28;20417;-71
2021/11/24 04:01:55;;;;;;;23.02;10.85;;;;;;;4.46;100.00;95665.38;5097403;28;20068;-71
2021/11/24 04:04:22;;;;;;;23.02;11.35;;;;;;;4.37;100.00;95660.25;5088999;28;20040;-72
2021/11/24 04:06:49;;;;;;;24.55;11.63;;;;;;;4.48;100.00;95673.72;5086046;28;20036;-72
2021/11/24 04:09:15;;;;;;;26.90;11.52;;;;;;;4.41;100.00;95681.34;5095127;28;20508;-72
2021/11/24 04:11:43;;;;;;;25.65;11.23;;;;;;;4.55;100.00;95679.81;5090362;28;20112;-71
2021/11/24 04:14:10;;;;;;;31.55;12.70;;;;;;;4.72;100.00;95675.34;5089956;28;20040;-72
2021/11/24 04:16:37;;;;;;;22.65;10.32;;;;;;;4.84;100.00;95671.34;5093377;28;20051;-71
2021/11/24 04:19:04;;;;;;;25.10;12.18;;;;;;;5.05;100.00;95686.19;5088710;28;20541;-72
2021/11/24 04:21:31;;;;;;;21.90;9.30;;;;;;;4.91;100.00;95689.53;5078335;28;20051;-71
2021/11/24 04:23:59;;;;;;;23.75;11.05;;;;;;;4.67;100.00;95672.47;5087360;28;20426;-71
2021/11/24 04:26:26;;;;;;;23.58;10.85;;;;;;;4.76;100.00;95698.03;5085891;28;20048;-71
2021/11/24 04:28:52;;;;;;;25.58;11.77;;;;;;;4.93;100.00;95692.75;5092029;28;20051;-71
2021/11/24 04:31:19;;;;;;;23.45;12.02;;;;;;;5.04;100.00;95694.94;5089142;28;20822;-71
2021/11/24 04:33:46;;;;;;;23.88;10.30;;;;;;;5.03;100.00;95682.97;5092583;28;20047;-71
2021/11/24 04:36:14;;;;;;;23.17;11.43;;;;;;;4.84;100.00;95698.94;5096570;28;20051;-71
2021/11/24 04:38:40;;;;;;;24.13;11.90;;;;;;;4.73;100.00;95698.38;5084952;28;20121;-71
2021/11/24 04:41:07;;;;;;;21.50;9.82;;;;;;;4.74;100.00;95694.81;5094169;28;20050;-72
2021/11/24 04:43:42;;;;;;;20.10;10.45;;;;;;;4.64;100.00;95703.78;5098930;28;20055;-72
2021/11/24 04:46:09;;;;;;;26.77;11.35;;;;;;;4.56;100.00;95691.75;5086275;28;20031;-71
2021/11/24 04:48:37;;;;;;;24.25;12.13;;;;;;;4.60;100.00;95703.31;5087182;28;20525;-71
2021/11/24 04:51:04;;;;;;;26.10;12.10;;;;;;;4.58;100.00;95700.91;5089772;28;20516;-72
2021/11/24 04:53:31;;;;;;;22.85;12.23;;;;;;;4.54;100.00;95704.81;5092542;28;20048;-71
2021/11/24 04:55:58;;;;;;;28.15;12.10;;;;;;;4.50;100.00;95702.72;5093186;28;20040;-72
2021/11/24 04:58:25;;;;;;;22.98;11.60;;;;;;;4.64;100.00;95704.56;5093805;28;20040;-72
2021/11/24 05:00:52;;;;;;;27.63;12.77;;;;;;;4.79;100.00;95702.84;5086484;28;20032;-73
2021/11/24 05:03:19;;;;;;;25.70;10.75;;;;;;;4.72;100.00;95686.47;5087945;28;20036;-71
2021/11/24 05:05:46;;;;;;;24.13;11.90;;;;;;;4.81;100.00;95710.44;5092985;28;20043;-72
2021/11/24 05:08:13;;;;;;;24.60;11.55;;;;;;;4.84;100.00;95698.94;5089855;28;20044;-72
2021/11/24 05:10:40;;;;;;;22.45;11.05;;;;;;;5.11;100.00;95713.91;5090881;28;20127;-73
2021/11/24 05:13:07;;;;;;;22.48;10.93;;;;;;;5.21;100.00;95707.69;5087945;28;20044;-71
2021/11/24 05:15:37;;;;;;;21.42;11.25;;;;;;;5.34;100.00;95705.28;5088172;28;20059;-71
2021/11/24 05:18:07;;;;;;;20.63;9.77;;;;;;;5.63;100.00;95724.38;5091851;28;20054;-72
2021/11/24 05:20:34;;;;;;;25.13;11.57;;;;;;;5.74;100.00;95721.34;5089430;28;20421;-72
2021/11/24 05:23:04;;;;;;;26.55;13.57;;;;;;;5.84;100.00;95727.06;5084055;28;20121;-71
2021/11/24 05:25:33;;;;;;;24.13;11.45;;;;;;;5.92;100.00;95732.16;5085236;28;20038;-72
2021/11/24 05:28:00;;;;;;;21.83;10.95;;;;;;;5.98;100.00;95729.84;5071368;28;20553;-72
2021/11/24 05:30:28;;;;;;;24.98;12.00;;;;;;;5.93;100.00;95731.16;5088234;28;20040;-72
2021/11/24 05:32:55;;;;;;;24.70;11.85;;;;;;;5.79;100.00;95734.53;5082452;28;20048;-71
2021/11/24 05:35:24;;;;;;;19.92;10.77;;;;;;;5.72;100.00;95718.16;5084851;28;20105;-72
2021/11/24 05:37:52;;;;;;;40.00;21.30;;;;;;;5.64;100.00;95736.34;5088234;28;20044;-72
2021/11/24 05:40:23;;;;;;;41.45;21.77;;;;;;;5.50;100.00;95735.34;5085813;28;20071;-72
2021/11/24 05:42:50;;;;;;;32.55;17.35;;;;;;;5.18;100.00;95716.56;5088727;28;20048;-72
2021/11/24 05:45:39;;;;;;;24.63;12.45;;;;;;;5.08;100.00;95734.91;5085536;28;20055;-72
2021/11/24 05:48:09;;;;;;;21.88;11.23;;;;;;;5.11;100.00;95737.16;5088969;28;20039;-72
2021/11/24 05:50:46;;;;;;;25.25;12.10;;;;;;;5.10;100.00;95740.69;5091788;28;20048;-72
2021/11/24 05:53:16;;;;;;;22.90;11.45;;;;;;;5.14;100.00;95749.69;5092407;28;20047;-72
2021/11/24 05:55:47;;;;;;;536.20;314.80;;;;;;;5.28;100.00;95749.91;5087236;28;20052;-72
2021/11/24 05:58:18;;;;;;;127.65;74.60;;;;;;;5.27;100.00;95730.22;5095272;28;20797;-72
2021/11/24 06:00:45;;;;;;;50.08;24.92;;;;;;;5.18;100.00;95763.06;5092504;28;20051;-72
2021/11/24 06:03:13;;;;;;;35.28;16.33;;;;;;;5.23;100.00;95765.13;5055944;28;20054;-72
2021/11/24 06:05:39;;;;;;;27.60;13.27;;;;;;;5.17;100.00;95756.31;5090750;28;20066;-72
2021/11/24 06:08:06;;;;;;;20.17;10.32;;;;;;;5.12;100.00;95733.56;5096799;28;20043;-72
2021/11/24 06:10:34;;;;;;;25.27;13.00;;;;;;;5.41;100.00;95763.03;5087656;28;20032;-73
2021/11/24 06:13:01;;;;;;;31.42;14.13;;;;;;;5.55;100.00;95761.47;5090921;28;20040;-72
2021/11/24 06:15:29;;;;;;;27.77;12.93;;;;;;;5.58;100.00;95768.03;5095318;28;20070;-72
2021/11/24 06:17:57;;;;;;;27.10;13.57;;;;;;;5.55;100.00;95769.22;5089637;28;20043;-72
2021/11/24 06:20:24;;;;;;;27.20;13.57;;;;;;;5.65;100.00;95774.13;5086961;28;20032;-72
2021/11/24 06:22:51;;;;;;;32.38;14.95;;;;;;;5.62;100.00;95766.69;5092348;28;20093;-72
2021/11/24 06:25:18;;;;;;;26.95;14.35;;;;;;;5.70;100.00;95782.13;5093380;28;20043;-72
2021/11/24 06:27:45;;;;;;;24.50;12.30;;;;;;;5.58;100.00;95768.03;5095198;28;20142;-72
2021/11/24 06:30:15;;;;;;;26.15;12.15;;;;;;;5.79;100.00;95786.25;5095063;28;20040;-72
2021/11/24 06:32:43;;;;;;;31.42;14.40;;;;;;;5.80;100.00;95787.03;5087572;28;20044;-72
2021/11/24 06:35:11;;;;;;;40.28;17.00;;;;;;;5.49;100.00;95770.72;5096226;28;20048;-72
2021/11/24 06:37:38;;;;;;;28.13;13.15;;;;;;;5.34;100.00;95800.88;5098496;28;20055;-73
2021/11/24 06:40:06;;;;;;;29.77;13.57;;;;;;;5.27;100.00;95793.00;5093689;28;20040;-72
2021/11/24 06:42:34;;;;;;;25.58;11.50;;;;;;;5.17;100.00;95788.09;5093329;28;21641;-72
2021/11/24 06:45:01;;;;;;;42.35;19.00;;;;;;;5.11;100.00;95804.28;5092530;28;20059;-72
2021/11/24 06:47:28;;;;;;;34.22;16.40;;;;;;;5.08;100.00;95804.63;5094590;28;20420;-72
2021/11/24 06:49:55;;;;;;;39.53;16.70;;;;;;;5.05;100.00;95804.97;5087743;28;20040;-72
2021/11/24 06:52:22;;;;;;;41.00;19.92;;;;;;;4.96;100.00;95798.25;5096738;28;20055;-72
2021/11/24 06:54:49;;;;;;;67.10;33.17;;;;;;;4.97;100.00;95808.41;5079728;28;20121;-72
2021/11/24 06:57:16;;;;;;;75.60;37.85;;;;;;;4.82;100.00;95793.81;5073823;28;20060;-72
2021/11/24 06:59:43;;;;;;;53.33;27.05;;;;;;;4.84;100.00;95797.81;5097840;28;20098;-73
2021/11/24 07:02:10;;;;;;;37.08;17.27;;;;;;;5.01;100.00;95814.03;5075649;28;20101;-72
2021/11/24 07:04:38;;;;;;;29.83;15.55;;;;;;;5.05;100.00;95804.97;5089589;28;21799;-72
2021/11/24 07:07:05;;;;;;;34.80;15.32;;;;;;;5.10;100.00;95807.84;5089712;28;20473;-74
2021/11/24 07:09:32;;;;;;;29.98;15.27;;;;;;;5.17;100.00;95803.59;5091742;28;20047;-72
2021/11/24 07:11:59;;;;;;;27.27;12.35;;;;;;;5.20;100.00;95801.63;5088394;28;20501;-73
2021/11/24 07:14:26;;;;;;;30.25;13.23;;;;;;;5.26;100.00;95803.53;5089291;28;20070;-72
2021/11/24 07:16:53;;;;;;;42.42;19.85;;;;;;;5.29;100.00;95800.59;5086913;28;20052;-72
2021/11/24 07:19:22;;;;;;;30.60;15.15;;;;;;;5.37;100.00;95808.28;5091777;28;20146;-72
2021/11/24 07:21:49;;;;;;;41.42;14.23;;;;;;;5.41;100.00;95808.75;5095782;28;20035;-72
2021/11/24 07:24:18;;;;;;;57.15;25.23;;;;;;;5.40;100.00;95813.09;5099698;28;20046;-73
2021/11/24 07:26:45;;;;;;;51.53;23.08;;;;;;;5.42;100.00;95811.16;5098496;28;20159;-72
2021/11/24 07:29:13;;;;;;;27.92;14.52;;;;;;;5.45;100.00;95810.00;5097819;28;20040;-72
2021/11/24 07:31:40;;;;;;;46.65;19.75;;;;;;;5.40;100.00;95797.56;5089822;28;20047;-72
2021/11/24 07:34:07;;;;;;;36.22;15.50;;;;;;;5.48;100.00;95810.44;5092874;28;20511;-72
2021/11/24 07:36:34;;;;;;;35.08;15.95;;;;;;;5.52;100.00;95811.69;5085952;28;20614;-72
2021/11/24 07:39:01;;;;;;;34.22;14.07;;;;;;;5.50;100.00;95812.84;5087377;28;20062;-72
2021/11/24 07:41:28;;;;;;;86.18;29.58;;;;;;;5.47;100.00;95815.78;5090649;28;20108;-72
2021/11/24 07:43:54;;;;;;;42.63;18.48;;;;;;;5.46;100.00;95815.00;5087072;28;20036;-72
2021/11/24 07:46:21;;;;;;;27.65;12.52;;;;;;;5.51;100.00;95820.44;5089659;28;20067;-71
2021/11/24 07:48:48;;;;;;;42.03;18.98;;;;;;;5.53;100.00;95818.47;5084331;28;20048;-71
2021/11/24 07:51:19;;;;;;;38.67;17.77;;;;;;;5.48;100.00;95805.28;5086911;28;20036;-72
2021/11/24 07:53:46;;;;;;;38.97;18.63;;;;;;;5.63;100.00;95820.00;5094083;28;20056;-73
2021/11/24 07:56:13;;;;;;;35.55;16.77;;;;;;;5.68;100.00;95825.47;5095358;28;20043;-73
2021/11/24 07:58:43;;;;;;;42.38;18.73;;;;;;;5.76;100.00;95817.63;5092235;28;20039;-73
2021/11/24 08:01:11;;;;;;;38.75;15.45;;;;;;;5.80;100.00;95813.72;5096676;28;20036;-73
2021/11/24 08:03:39;;;;;;;32.40;12.73;;;;;;;5.76;100.00;95807.28;5093381;28;20040;-73
2021/11/24 08:06:06;;;;;;;27.65;14.98;;;;;;;5.74;100.00;95825.56;5090469;28;20408;-74
2021/11/24 08:08:33;;;;;;;34.22;15.60;;;;;;;5.88;100.00;95818.00;5072487;28;20048;-73
2021/11/24 08:11:00;;;;;;;32.17;15.07;;;;;;;6.01;100.00;95830.34;5087184;28;20050;-73
2021/11/24 08:13:27;;;;;;;30.60;14.50;;;;;;;6.00;100.00;95823.59;5093932;28;20042;-73
2021/11/24 08:15:54;;;;;;;27.70;14.27;;;;;;;6.16;100.00;95828.56;5092365;28;20055;-74
2021/11/24 08:18:21;;;;;;;28.98;13.95;;;;;;;6.26;100.00;95828.28;5096750;28;20054;-73
2021/11/24 08:20:48;;;;;;;29.08;13.48;;;;;;;6.19;100.00;95830.00;5070208;28;20032;-72
2021/11/24 08:23:15;;;;;;;28.58;13.38;;;;;;;5.99;100.00;95821.97;5086149;28;20123;-72
2021/11/24 08:25:42;;;;;;;29.10;14.98;;;;;;;6.15;100.00;95821.78;5092788;28;20054;-74
2021/11/24 08:28:09;;;;;;;27.45;13.80;;;;;;;6.06;100.00;95822.84;5094473;28;20044;-73
2021/11/24 08:30:37;;;;;;;35.42;16.92;;;;;;;5.95;100.00;95834.41;5089292;28;20043;-75
2021/11/24 08:33:04;;;;;;;24.85;13.68;;;;;;;6.05;100.00;95836.75;5093793;28;20485;-77
2021/11/24 08:35:31;;;;;;;42.03;17.63;;;;;;;6.02;100.00;95813.84;5095571;28;20044;-78
2021/11/24 08:37:58;;;;;;;43.45;17.85;;;;;;;6.10;100.00;95813.75;5078545;28;20051;-78
2021/11/24 08:40:25;;;;;;;28.45;13.70;;;;;;;5.98;100.00;95821.16;5101414;28;20058;-78
2021/11/24 08:42:52;;;;;;;34.55;15.27;;;;;;;6.07;100.00;95824.47;5096363;28;20036;-77
2021/11/24 08:45:19;;;;;;;30.40;14.73;;;;;;;5.92;100.00;95820.06;5094013;28;20039;-77
2021/11/24 08:47:47;;;;;;;28.55;13.30;;;;;;;6.15;100.00;95828.75;5098289;28;20127;-78
2021/11/24 08:50:15;;;;;;;28.52;14.23;;;;;;;6.20;100.00;95810.91;5097012;28;20412;-78
2021/11/24 08:52:43;;;;;;;42.20;16.83;;;;;;;6.35;100.00;95821.25;5076165;28;20044;-78
2021/11/24 08:55:11;;;;;;;71.22;25.83;;;;;;;6.16;100.00;95827.75;5095552;28;20050;-78
2021/11/24 08:57:38;;;;;;;39.60;19.08;;;;;;;6.17;100.00;95831.97;5101469;28;20043;-78
2021/11/24 09:00:08;;;;;;;45.67;20.67;;;;;;;6.00;100.00;95828.75;5094038;28;20035;-78
2021/11/24 09:02:34;;;;;;;44.22;16.75;;;;;;;6.13;100.00;95823.75;5093127;28;20402;-79
2021/11/24 09:05:04;;;;;;;38.17;15.85;;;;;;;5.84;100.00;95804.63;5092408;28;20068;-79
2021/11/24 09:07:31;;;;;;;43.50;16.92;;;;;;;6.30;100.00;95814.84;5094516;28;20047;-78
2021/11/24 09:10:01;;;;;;;34.50;16.33;;;;;;;6.29;100.00;95815.00;5094193;28;20040;-79
2021/11/24 09:12:28;;;;;;;48.92;20.50;;;;;;;6.38;100.00;95820.91;5090805;28;20031;-80
2021/11/24 09:14:55;;;;;;;39.22;16.17;;;;;;;6.28;100.00;95806.44;5094609;28;20052;-75
2021/11/24 09:17:22;;;;;;;43.58;19.90;;;;;;;6.26;100.00;95818.75;5093650;28;20047;-77
2021/11/24 09:19:49;;;;;;;82.18;32.60;;;;;;;6.22;100.00;95812.31;5093422;28;20036;-78
2021/11/24 09:22:34;;;;;;;50.40;21.75;;;;;;;6.24;100.00;95810.34;5080595;28;20523;-75
2021/11/24 09:25:01;;;;;;;28.00;13.95;;;;;;;6.09;100.00;95807.00;5090672;28;20039;-76
2021/11/24 09:28:15;;;;;;;36.20;17.08;;;;;;;6.21;100.00;95810.75;5096345;28;20044;-75
2021/11/24 09:30:16;;;;;;;54.30;20.38;;;;;;;6.19;100.00;95812.69;5087258;28;20052;-76
2021/11/24 09:32:44;;;;;;;35.60;16.17;;;;;;;6.07;100.00;95803.78;5089896;28;20040;-77
2021/11/24 09:35:12;;;;;;;64.57;25.70;;;;;;;6.04;100.00;95809.31;5096999;28;20046;-78
2021/11/24 09:37:39;;;;;;;51.83;22.70;;;;;;;6.11;100.00;95805.81;5099714;28;20497;-78
2021/11/24 09:40:07;;;;;;;51.38;20.15;;;;;;;6.05;100.00;95816.06;5098014;28;20044;-77
2021/11/24 09:42:37;;;;;;;63.55;24.25;;;;;;;6.00;100.00;95802.91;5098575;28;20046;-77
2021/11/24 09:45:05;;;;;;;61.03;23.80;;;;;;;6.19;100.00;95804.13;5093024;28;20426;-77
2021/11/24 09:47:36;;;;;;;73.13;24.10;;;;;;;6.32;100.00;95806.91;5094020;28;20051;-75
2021/11/24 09:50:07;;;;;;;73.05;29.67;;;;;;;6.25;100.00;95796.47;5086773;28;20040;-76
2021/11/24 09:52:35;;;;;;;38.53;17.52;;;;;;;6.28;100.00;95801.28;5096574;28;20055;-76
2021/11/24 09:55:04;;;;;;;34.92;14.98;;;;;;;6.40;100.00;95803.41;5068616;28;20035;-76
2021/11/24 09:57:32;;;;;;;51.03;22.45;;;;;;;6.39;100.00;95786.25;5091085;28;20060;-77
2021/11/24 09:59:59;;;;;;;73.38;27.00;;;;;;;6.32;100.00;95794.75;5091979;28;20400;-76
2021/11/24 10:02:25;;;;;;;63.47;21.88;;;;;;;6.34;100.00;95798.94;5089735;28;20113;-76
2021/11/24 10:04:52;;;;;;;48.65;19.25;;;;;;;6.27;100.00;95794.50;5087653;28;20067;-76
2021/11/24 10:07:20;;;;;;;42.22;17.85;;;;;;;6.30;100.00;95799.31;5098017;28;20060;-77
2021/11/24 10:09:48;;;;;;;50.00;21.40;;;;;;;6.42;100.00;95796.25;5094336;28;20047;-77
2021/11/24 10:12:15;;;;;;;45.83;18.92;;;;;;;6.46;100.00;95787.13;5093225;28;20047;-78
2021/11/24 10:14:43;;;;;;;42.00;18.80;;;;;;;6.31;100.00;95790.53;5073646;28;20505;-77
2021/11/24 10:17:14;;;;;;;45.10;19.58;;;;;;;6.26;100.00;95782.53;5094663;28;20048;-77
2021/11/24 10:20:06;;;;;;;39.88;17.60;;;;;;;6.39;100.00;95781.91;5109208;27;20059;-77
2021/11/24 10:22:38;;;;;;;36.90;17.13;;;;;;;6.40;100.00;95782.69;5084752;28;20060;-77
2021/11/24 10:25:14;;;;;;;42.90;20.60;;;;;;;6.55;100.00;95780.88;5090549;28;20036;-77
2021/11/24 10:27:48;;;;;;;48.97;18.83;;;;;;;6.40;100.00;95772.34;5089619;28;20050;-79
2021/11/24 10:30:30;;;;;;;56.80;23.10;;;;;;;6.38;100.00;95775.13;5094694;28;20043;-76
2021/11/24 10:33:18;;;;;;;39.47;19.83;;;;;;;6.52;100.00;95773.50;5093113;28;20046;-76
2021/11/24 10:35:45;;;;;;;37.40;16.73;;;;;;;6.37;100.00;95764.94;5093376;28;20040;-78
2021/11/24 10:38:18;;;;;;;31.00;16.02;;;;;;;6.30;100.00;95772.63;5095770;28;20095;-78
2021/11/24 10:40:47;;;;;;;33.80;15.32;;;;;;;6.25;100.00;95770.59;5097163;28;20027;-79
2021/11/24 10:43:16;;;;;;;30.92;14.57;;;;;;;6.22;100.00;95770.16;5098537;28;20054;-77
2021/11/24 10:45:57;;;;;;;35.65;18.08;;;;;;;6.35;100.00;95774.66;5080748;28;20035;-77
2021/11/24 10:48:30;;;;;;;34.92;15.73;;;;;;;6.40;100.00;95759.41;5100337;28;20063;-77
2021/11/24 10:51:00;;;;;;;37.07;14.47;;;;;;;6.42;100.00;95752.25;5096217;28;20501;-75
2021/11/24 10:53:28;;;;;;;30.83;14.10;;;;;;;6.48;100.00;95759.28;5074768;28;20504;-76
2021/11/24 10:56:06;;;;;;;27.58;14.00;;;;;;;6.50;100.00;95744.41;5095938;28;20036;-76
2021/11/24 10:58:37;;;;;;;23.35;13.40;;;;;;;6.50;100.00;95736.63;5103603;28;20050;-79
2021/11/24 11:01:04;;;;;;;19.60;9.88;;;;;;;6.55;100.00;95749.81;5095489;28;20401;-76
2021/11/24 11:03:45;;;;;;;20.58;9.80;;;;;;;6.44;100.00;95745.13;5093429;28;20063;-77
2021/11/24 11:06:29;;;;;;;14.13;8.10;;;;;;;6.41;100.00;95746.28;5094380;28;20063;-77
2021/11/24 11:08:57;;;;;;;19.93;10.77;;;;;;;6.28;100.00;95734.00;5095469;28;20041;-77
2021/11/24 11:11:33;;;;;;;13.43;7.90;;;;;;;6.35;100.00;95752.19;5089780;28;20477;-75
2021/11/24 11:14:22;;;;;;;14.13;7.68;;;;;;;6.27;100.00;95737.56;5090196;28;20560;-75
2021/11/24 11:16:55;;;;;;;19.17;8.90;;;;;;;6.28;100.00;95743.53;5092174;28;20040;-74
2021/11/24 11:19:46;;;;;;;13.70;6.72;;;;;;;6.21;100.00;95742.66;5087140;28;20036;-74
2021/11/24 11:22:18;;;;;;;9.88;6.10;;;;;;;6.05;100.00;95728.13;5091771;28;20040;-74